createdAt,value
2017-12-29T00:00:55.642Z,61.61
2017-12-29T00:03:23.318Z,61.73
2017-12-29T00:05:50.386Z,61.44
2017-12-29T00:08:16.683Z,61.29
2017-12-29T00:10:43.752Z,60.78
2017-12-29T00:13:10.025Z,60.64
2017-12-29T00:15:36.342Z,60.59
2017-12-29T00:18:02.651Z,60.82
2017-12-29T00:20:28.909Z,60.63
2017-12-29T00:22:55.233Z,60.38
2017-12-29T00:25:21.518Z,60.31
2017-12-29T00:27:48.625Z,60.41
2017-12-29T00:30:14.961Z,60.44
2017-12-29T00:32:41.272Z,60.67
2017-12-29T00:35:07.540Z,60.36
2017-12-29T00:37:33.843Z,60.46
2017-12-29T00:40:00.104Z,60.21
2017-12-29T00:42:26.372Z,60.33
2017-12-29T00:44:52.634Z,60.26
2017-12-29T00:47:18.927Z,60.15
2017-12-29T00:49:45.242Z,59.98
2017-12-29T00:52:12.228Z,60.18
2017-12-29T00:54:38.534Z,60.02
2017-12-29T00:57:04.862Z,59.75
2017-12-29T00:59:31.158Z,59.59
2017-12-29T01:01:57.420Z,59.25
2017-12-29T01:04:23.676Z,59.73
2017-12-29T01:06:49.978Z,59.70
2017-12-29T01:09:16.256Z,59.64
2017-12-29T01:11:42.524Z,59.87
2017-12-29T01:14:09.532Z,59.91
2017-12-29T01:16:35.789Z,60.19
2017-12-29T01:19:02.025Z,59.92
2017-12-29T01:21:29.049Z,60.25
2017-12-29T01:23:55.293Z,60.12
2017-12-29T01:26:22.356Z,59.84
2017-12-29T01:28:49.377Z,60.11
2017-12-29T01:31:15.648Z,60.00
2017-12-29T01:33:41.943Z,59.97
2017-12-29T01:36:08.223Z,60.24
2017-12-29T01:38:34.485Z,59.87
2017-12-29T01:41:00.784Z,60.18
2017-12-29T01:43:27.093Z,60.33
2017-12-29T01:45:54.104Z,60.09
2017-12-29T01:48:20.376Z,60.54
2017-12-29T01:50:46.671Z,60.39
2017-12-29T01:53:12.934Z,59.99
2017-12-29T01:55:39.192Z,59.90
2017-12-29T01:58:05.492Z,59.82
2017-12-29T02:00:31.772Z,59.78
2017-12-29T02:02:58.048Z,59.71
2017-12-29T02:05:25.060Z,59.64
2017-12-29T02:07:51.346Z,59.40
2017-12-29T02:10:17.624Z,59.51
2017-12-29T02:12:43.982Z,59.38
2017-12-29T02:15:10.992Z,59.11
2017-12-29T02:17:37.244Z,59.27
2017-12-29T02:20:03.487Z,58.80
2017-12-29T02:22:30.489Z,58.68
2017-12-29T02:24:56.730Z,58.77
2017-12-29T02:27:23.068Z,58.61
2017-12-29T02:29:49.326Z,58.56
2017-12-29T02:32:16.341Z,58.68
2017-12-29T02:34:42.625Z,59.19
2017-12-29T02:37:08.900Z,59.33
2017-12-29T02:39:35.155Z,59.12
2017-12-29T02:42:02.156Z,58.78
2017-12-29T02:44:28.400Z,58.85
2017-12-29T02:46:54.703Z,59.46
2017-12-29T02:49:20.944Z,59.79
2017-12-29T02:51:47.260Z,59.46
2017-12-29T02:54:14.515Z,59.36
2017-12-29T02:56:40.788Z,59.71
2017-12-29T02:59:07.020Z,59.51
2017-12-29T03:01:33.300Z,59.24
2017-12-29T03:03:59.550Z,59.41
2017-12-29T03:06:25.848Z,59.58
2017-12-29T03:08:52.104Z,59.79
2017-12-29T03:11:18.380Z,59.81
2017-12-29T03:13:45.400Z,59.54
2017-12-29T03:16:11.666Z,59.46
2017-12-29T03:18:38.705Z,59.79
2017-12-29T03:21:05.786Z,59.63
2017-12-29T03:23:32.055Z,59.38
2017-12-29T03:25:58.363Z,59.63
2017-12-29T03:28:24.741Z,59.67
2017-12-29T03:30:51.016Z,60.15
2017-12-29T03:33:17.302Z,60.31
2017-12-29T03:35:43.619Z,60.73
2017-12-29T03:38:09.892Z,60.16
2017-12-29T03:40:36.141Z,60.63
2017-12-29T03:43:02.401Z,60.97
2017-12-29T03:45:28.654Z,61.09
2017-12-29T03:47:55.691Z,60.99
2017-12-29T03:50:21.953Z,61.10
2017-12-29T03:52:48.205Z,60.79
2017-12-29T03:55:14.550Z,60.63
2017-12-29T03:57:40.826Z,60.80
2017-12-29T04:00:07.827Z,60.53
2017-12-29T04:02:34.164Z,60.94
2017-12-29T04:05:00.459Z,61.19
2017-12-29T04:07:27.384Z,61.52
2017-12-29T04:09:54.368Z,61.68
2017-12-29T04:12:20.713Z,61.66
2017-12-29T04:14:47.017Z,61.81
2017-12-29T04:17:13.254Z,61.70
2017-12-29T04:19:39.527Z,61.67
2017-12-29T04:22:05.814Z,61.69
2017-12-29T04:24:32.136Z,61.86
2017-12-29T04:26:58.407Z,61.82
2017-12-29T04:29:24.686Z,61.77
2017-12-29T04:31:50.927Z,61.80
2017-12-29T04:34:17.191Z,61.69
2017-12-29T04:36:43.559Z,62.47
2017-12-29T04:39:10.572Z,61.97
2017-12-29T04:41:36.903Z,61.60
2017-12-29T04:44:03.193Z,61.95
2017-12-29T04:46:29.501Z,62.18
2017-12-29T04:48:56.540Z,62.20
2017-12-29T04:51:23.552Z,62.38
2017-12-29T04:53:49.775Z,62.42
2017-12-29T04:56:16.076Z,62.54
2017-12-29T04:58:42.346Z,62.30
2017-12-29T05:01:08.656Z,61.88
2017-12-29T05:03:34.971Z,62.09
2017-12-29T05:06:01.220Z,62.23
2017-12-29T05:08:27.504Z,62.69
2017-12-29T05:10:54.496Z,62.55
2017-12-29T05:13:20.804Z,62.42
2017-12-29T05:15:47.064Z,62.42
2017-12-29T05:18:13.364Z,62.12
2017-12-29T05:20:40.615Z,62.45
2017-12-29T05:23:06.858Z,62.21
2017-12-29T05:25:33.108Z,62.26
2017-12-29T05:27:59.393Z,62.48
2017-12-29T05:30:26.400Z,62.29
2017-12-29T05:32:52.708Z,62.20
2017-12-29T05:35:18.980Z,62.17
2017-12-29T05:37:45.995Z,62.32
2017-12-29T05:40:12.265Z,62.16
2017-12-29T05:42:39.247Z,61.94
2017-12-29T05:45:05.587Z,61.91
2017-12-29T05:47:31.871Z,61.67
2017-12-29T05:49:58.939Z,61.60
2017-12-29T05:52:25.228Z,61.67
2017-12-29T05:54:51.556Z,61.42
2017-12-29T05:57:17.850Z,61.67
2017-12-29T05:59:44.197Z,61.31
2017-12-29T06:02:10.508Z,61.36
2017-12-29T06:04:36.816Z,61.43
2017-12-29T06:07:03.079Z,61.34
2017-12-29T06:09:29.404Z,61.30
2017-12-29T06:11:55.648Z,61.45
2017-12-29T06:14:21.934Z,61.67
2017-12-29T06:16:48.936Z,62.16
2017-12-29T06:19:15.212Z,61.95
2017-12-29T06:21:42.234Z,61.84
2017-12-29T06:24:08.509Z,61.84
2017-12-29T06:26:34.838Z,61.50
2017-12-29T06:29:01.063Z,62.12
2017-12-29T06:31:27.327Z,61.73
2017-12-29T06:33:53.597Z,62.52
2017-12-29T06:36:20.631Z,61.95
2017-12-29T06:38:46.907Z,62.10
2017-12-29T06:41:13.151Z,62.73
2017-12-29T06:43:39.467Z,62.59
2017-12-29T06:46:05.794Z,62.74
2017-12-29T06:48:32.097Z,62.60
2017-12-29T06:50:59.135Z,62.36
2017-12-29T06:53:25.443Z,62.35
2017-12-29T06:55:51.687Z,62.31
2017-12-29T06:58:17.943Z,62.01
2017-12-29T07:00:44.223Z,61.98
2017-12-29T07:03:10.558Z,61.75
2017-12-29T07:05:36.855Z,61.82
2017-12-29T07:08:03.118Z,62.25
2017-12-29T07:10:29.392Z,62.06
2017-12-29T07:12:56.540Z,62.40
2017-12-29T07:15:23.518Z,62.38
2017-12-29T07:17:49.796Z,62.12
2017-12-29T07:20:16.074Z,62.25
2017-12-29T07:22:42.304Z,61.94
2017-12-29T07:25:08.642Z,61.86
2017-12-29T07:27:34.886Z,62.18
2017-12-29T07:30:01.174Z,61.99
2017-12-29T07:32:27.452Z,61.95
2017-12-29T07:34:53.814Z,62.47
2017-12-29T07:37:20.066Z,62.36
2017-12-29T07:39:47.108Z,62.33
2017-12-29T07:42:13.362Z,61.93
2017-12-29T07:44:39.601Z,61.78
2017-12-29T07:47:05.910Z,61.70
2017-12-29T07:49:32.213Z,61.93
2017-12-29T07:51:58.478Z,61.70
2017-12-29T07:54:24.759Z,61.49
2017-12-29T07:56:51.037Z,61.41
2017-12-29T07:59:17.333Z,61.39
2017-12-29T08:01:43.601Z,61.31
2017-12-29T08:04:09.890Z,60.55
2017-12-29T08:06:36.157Z,60.32
2017-12-29T08:09:02.436Z,59.98
2017-12-29T08:11:28.761Z,59.50
2017-12-29T08:13:55.065Z,58.95
2017-12-29T08:16:21.341Z,59.74
2017-12-29T08:18:47.677Z,60.01
2017-12-29T08:21:14.031Z,59.61
2017-12-29T08:23:41.028Z,59.36
2017-12-29T08:26:07.369Z,59.33
2017-12-29T08:28:33.634Z,59.47
2017-12-29T08:31:00.666Z,59.32
2017-12-29T08:33:27.702Z,58.97
2017-12-29T08:35:54.004Z,59.29
2017-12-29T08:38:20.266Z,58.58
2017-12-29T08:40:46.556Z,58.19
2017-12-29T08:43:12.880Z,58.64
2017-12-29T08:45:39.143Z,58.85
2017-12-29T08:48:05.376Z,58.64
2017-12-29T08:50:31.769Z,58.31
2017-12-29T08:52:57.996Z,58.41
2017-12-29T08:55:24.289Z,58.15
2017-12-29T08:57:50.533Z,58.23
2017-12-29T09:00:17.571Z,58.08
2017-12-29T09:02:44.850Z,57.80
2017-12-29T09:05:11.146Z,57.87
2017-12-29T09:07:37.409Z,58.07
2017-12-29T09:10:03.733Z,58.30
2017-12-29T09:12:30.008Z,57.51
2017-12-29T09:14:56.315Z,57.69
2017-12-29T09:17:22.574Z,57.58
2017-12-29T09:19:48.835Z,57.95
2017-12-29T09:22:15.838Z,58.01
2017-12-29T09:24:42.099Z,57.54
2017-12-29T09:27:08.502Z,57.17
2017-12-29T09:29:34.783Z,57.09
2017-12-29T09:32:01.748Z,56.87
2017-12-29T09:34:28.042Z,56.83
2017-12-29T09:36:54.272Z,56.58
2017-12-29T09:39:21.282Z,55.75
2017-12-29T09:41:47.608Z,55.61
2017-12-29T09:44:13.918Z,56.09
2017-12-29T09:46:40.149Z,56.43
2017-12-29T09:49:06.458Z,56.05
2017-12-29T09:51:32.812Z,56.16
2017-12-29T09:53:59.094Z,56.12
2017-12-29T09:56:25.380Z,56.63
2017-12-29T09:58:51.702Z,56.22
2017-12-29T10:01:18.047Z,56.06
2017-12-29T10:03:44.394Z,56.57
2017-12-29T10:06:10.667Z,55.79
2017-12-29T10:08:37.671Z,56.10
2017-12-29T10:11:04.019Z,56.21
2017-12-29T10:13:30.428Z,55.71
2017-12-29T10:15:56.743Z,55.77
2017-12-29T10:18:23.017Z,56.10
2017-12-29T10:20:49.347Z,55.99
2017-12-29T10:23:15.703Z,55.81
2017-12-29T10:25:42.748Z,55.77
2017-12-29T10:28:09.800Z,56.23
2017-12-29T10:30:36.812Z,55.91
2017-12-29T10:33:03.145Z,55.86
2017-12-29T10:35:29.398Z,56.17
2017-12-29T10:37:56.434Z,55.86
2017-12-29T10:40:22.682Z,55.72
2017-12-29T10:42:49.777Z,56.10
2017-12-29T10:45:16.017Z,55.90
2017-12-29T10:47:42.264Z,55.67
2017-12-29T10:50:08.594Z,55.50
2017-12-29T10:52:34.869Z,55.70
2017-12-29T10:55:01.151Z,54.88
2017-12-29T10:57:27.369Z,55.15
2017-12-29T10:59:53.623Z,54.87
2017-12-29T11:02:19.925Z,54.69
2017-12-29T11:04:46.193Z,53.97
2017-12-29T11:07:13.235Z,54.74
2017-12-29T11:09:40.263Z,54.45
2017-12-29T11:12:06.605Z,55.09
2017-12-29T11:14:33.765Z,54.16
2017-12-29T11:17:00.818Z,53.97
2017-12-29T11:19:27.839Z,54.18
2017-12-29T11:21:54.136Z,53.31
2017-12-29T11:24:20.395Z,51.82
2017-12-29T11:26:46.733Z,51.22
2017-12-29T11:29:13.007Z,51.74
2017-12-29T11:31:39.311Z,52.03
2017-12-29T11:34:06.332Z,53.10
2017-12-29T11:36:32.576Z,53.30
2017-12-29T11:38:58.880Z,53.62
2017-12-29T11:41:25.165Z,52.64
2017-12-29T11:43:51.450Z,53.96
2017-12-29T11:46:17.743Z,53.78
2017-12-29T11:48:44.105Z,53.09
2017-12-29T11:51:10.401Z,52.42
2017-12-29T11:53:36.671Z,47.37
2017-12-29T11:56:02.971Z,41.80
2017-12-29T11:58:29.217Z,42.55
2017-12-29T12:00:55.531Z,45.08
2017-12-29T12:03:21.789Z,48.11
2017-12-29T12:05:48.122Z,49.65
2017-12-29T12:08:14.423Z,46.91
2017-12-29T12:10:40.703Z,45.21
2017-12-29T12:13:06.995Z,45.06
2017-12-29T12:15:33.279Z,43.58
2017-12-29T12:18:00.307Z,42.20
2017-12-29T12:20:26.604Z,39.36
2017-12-29T12:22:52.921Z,38.10
2017-12-29T12:25:19.210Z,36.93
2017-12-29T12:27:45.535Z,38.73
2017-12-29T12:30:11.843Z,37.44
2017-12-29T12:32:38.089Z,37.40
2017-12-29T12:35:04.378Z,36.70
2017-12-29T12:37:30.636Z,35.96
2017-12-29T12:39:56.896Z,33.71
2017-12-29T12:42:23.907Z,34.60
2017-12-29T12:44:50.155Z,34.54
2017-12-29T12:47:16.517Z,34.04
2017-12-29T12:49:43.514Z,36.73
2017-12-29T12:52:09.892Z,35.19
2017-12-29T12:54:36.868Z,35.71
2017-12-29T12:57:03.131Z,33.43
2017-12-29T12:59:29.416Z,31.96
2017-12-29T13:01:55.701Z,30.28
2017-12-29T13:04:22.040Z,29.45
2017-12-29T13:06:48.304Z,29.29
2017-12-29T13:09:14.622Z,29.03
2017-12-29T13:11:41.717Z,29.10
2017-12-29T13:14:08.045Z,32.29
2017-12-29T13:16:34.319Z,33.32
2017-12-29T13:19:01.371Z,34.22
2017-12-29T13:21:28.439Z,34.32
2017-12-29T13:23:54.730Z,34.53
2017-12-29T13:26:21.770Z,32.55
2017-12-29T13:28:48.057Z,30.69
2017-12-29T13:31:14.350Z,30.81
2017-12-29T13:33:40.620Z,30.82
2017-12-29T13:36:06.895Z,30.44
2017-12-29T13:38:33.191Z,32.05
2017-12-29T13:40:59.496Z,32.57
2017-12-29T13:43:26.505Z,32.97
2017-12-29T13:45:52.830Z,31.69
2017-12-29T13:48:19.150Z,32.66
2017-12-29T13:50:45.456Z,35.16
2017-12-29T13:53:11.706Z,39.40
2017-12-29T13:55:37.984Z,40.91
2017-12-29T13:58:05.024Z,43.85
2017-12-29T14:00:31.298Z,45.72
2017-12-29T14:02:57.600Z,46.71
2017-12-29T14:05:23.888Z,47.68
2017-12-29T14:07:50.149Z,47.83
2017-12-29T14:10:17.240Z,48.95
2017-12-29T14:12:43.510Z,49.58
2017-12-29T14:15:09.799Z,50.19
2017-12-29T14:17:36.330Z,49.78
2017-12-29T14:20:02.587Z,50.59
2017-12-29T14:22:28.869Z,50.33
2017-12-29T14:24:55.151Z,51.02
2017-12-29T14:27:21.424Z,50.81
2017-12-29T14:29:49.325Z,50.93
2017-12-29T14:32:15.595Z,51.51
2017-12-29T14:34:41.903Z,52.18
2017-12-29T14:37:08.188Z,52.13
2017-12-29T14:39:34.425Z,52.48
2017-12-29T14:42:00.821Z,53.24
2017-12-29T14:44:27.076Z,53.26
2017-12-29T14:46:53.356Z,52.44
2017-12-29T14:49:19.636Z,53.33
2017-12-29T14:51:45.989Z,52.75
2017-12-29T14:54:12.329Z,52.84
2017-12-29T14:56:38.581Z,53.16
2017-12-29T14:59:04.856Z,52.71
2017-12-29T15:01:31.873Z,53.44
2017-12-29T15:03:58.158Z,53.09
2017-12-29T15:06:24.418Z,53.76
2017-12-29T15:08:50.902Z,53.86
2017-12-29T15:11:17.164Z,54.25
2017-12-29T15:13:43.447Z,54.38
2017-12-29T15:16:10.482Z,54.54
2017-12-29T15:18:36.794Z,54.34
2017-12-29T15:21:03.100Z,55.00
2017-12-29T15:23:29.360Z,55.68
2017-12-29T15:25:55.665Z,55.65
2017-12-29T15:28:21.957Z,55.62
2017-12-29T15:30:49.181Z,55.70
2017-12-29T15:33:15.454Z,56.10
2017-12-29T15:35:41.724Z,56.38
2017-12-29T15:38:08.088Z,56.50
2017-12-29T15:40:34.387Z,56.75
2017-12-29T15:43:00.689Z,56.71
2017-12-29T15:45:26.997Z,56.77
2017-12-29T15:47:53.297Z,56.80
2017-12-29T15:50:19.603Z,57.10
2017-12-29T15:52:45.933Z,57.02
2017-12-29T15:55:12.205Z,57.20
2017-12-29T15:57:39.253Z,57.42
2017-12-29T16:00:06.251Z,57.53
2017-12-29T16:02:33.461Z,57.83
2017-12-29T16:05:00.536Z,58.03
2017-12-29T16:07:26.830Z,58.22
2017-12-29T16:09:53.849Z,58.34
2017-12-29T16:12:20.136Z,58.17
2017-12-29T16:14:46.427Z,58.45
2017-12-29T16:17:12.697Z,58.34
2017-12-29T16:19:39.017Z,59.16
2017-12-29T16:22:05.300Z,59.33
2017-12-29T16:24:31.595Z,59.61
2017-12-29T16:26:58.003Z,59.32
2017-12-29T16:29:24.259Z,59.47
2017-12-29T16:31:50.555Z,59.66
2017-12-29T16:34:17.613Z,59.94
2017-12-29T16:36:43.857Z,60.16
2017-12-29T16:39:10.123Z,60.64
2017-12-29T16:41:36.429Z,60.66
2017-12-29T16:44:02.697Z,60.89
2017-12-29T16:46:29.019Z,60.60
2017-12-29T16:48:55.355Z,60.41
2017-12-29T16:51:21.681Z,60.25
2017-12-29T16:53:48.087Z,60.59
2017-12-29T16:56:14.528Z,60.81
2017-12-29T16:58:40.917Z,60.55
2017-12-29T17:01:07.286Z,60.62
2017-12-29T17:03:33.600Z,60.88
2017-12-29T17:05:59.969Z,61.09
2017-12-29T17:08:26.262Z,61.54
2017-12-29T17:10:52.652Z,61.80
2017-12-29T17:13:18.958Z,61.89
2017-12-29T17:15:45.266Z,61.74
2017-12-29T17:18:11.577Z,61.82
2017-12-29T17:20:37.932Z,62.18
2017-12-29T17:23:04.288Z,62.30
2017-12-29T17:25:30.659Z,62.48
2017-12-29T17:27:57.704Z,62.26
2017-12-29T17:30:24.747Z,62.58
2017-12-29T17:32:51.031Z,62.99
2017-12-29T17:35:17.348Z,62.68
2017-12-29T17:37:43.670Z,62.50
2017-12-29T17:40:09.937Z,62.35
2017-12-29T17:42:36.235Z,62.19
2017-12-29T17:45:02.529Z,62.00
2017-12-29T17:47:28.907Z,61.99
2017-12-29T17:49:55.199Z,62.07
2017-12-29T17:52:22.257Z,62.16
2017-12-29T17:54:49.247Z,61.91
2017-12-29T17:57:15.564Z,61.96
2017-12-29T17:59:41.838Z,61.90
2017-12-29T18:02:08.968Z,61.48
2017-12-29T18:04:35.954Z,61.39
2017-12-29T18:07:02.991Z,61.45
2017-12-29T18:09:29.320Z,61.84
2017-12-29T18:11:55.612Z,61.67
2017-12-29T18:14:21.920Z,62.33
2017-12-29T18:16:48.354Z,62.50
2017-12-29T18:19:14.639Z,62.58
2017-12-29T18:21:41.724Z,62.58
2017-12-29T18:24:08.037Z,62.30
2017-12-29T18:26:35.069Z,62.67
2017-12-29T18:29:01.357Z,62.94
2017-12-29T18:31:27.715Z,63.15
2017-12-29T18:33:54.066Z,63.44
2017-12-29T18:36:20.337Z,63.33
2017-12-29T18:38:46.587Z,63.49
2017-12-29T18:41:12.889Z,63.63
2017-12-29T18:43:39.133Z,64.24
2017-12-29T18:46:05.475Z,64.07
2017-12-29T18:48:31.788Z,63.94
2017-12-29T18:50:58.073Z,63.87
2017-12-29T18:53:24.424Z,63.95
2017-12-29T18:55:51.459Z,64.06
2017-12-29T18:58:18.496Z,64.16
2017-12-29T19:00:44.818Z,64.04
2017-12-29T19:03:11.104Z,64.43
2017-12-29T19:05:37.387Z,64.30
2017-12-29T19:08:03.642Z,64.25
2017-12-29T19:10:30.682Z,64.47
2017-12-29T19:12:57.736Z,64.22
2017-12-29T19:15:24.770Z,63.92
2017-12-29T19:17:51.916Z,63.40
2017-12-29T19:20:18.164Z,63.18
2017-12-29T19:22:45.290Z,63.44
2017-12-29T19:25:11.589Z,63.36
2017-12-29T19:27:37.937Z,63.51
2017-12-29T19:30:04.201Z,63.78
2017-12-29T19:32:31.262Z,63.99
2017-12-29T19:34:57.583Z,63.92
2017-12-29T19:37:24.594Z,63.89
2017-12-29T19:39:50.901Z,63.86
2017-12-29T19:42:17.261Z,63.95
2017-12-29T19:44:43.531Z,63.85
2017-12-29T19:47:10.559Z,64.12
2017-12-29T19:49:37.562Z,64.40
2017-12-29T19:52:03.888Z,64.21
2017-12-29T19:54:30.146Z,64.52
2017-12-29T19:56:56.492Z,64.52
2017-12-29T19:59:22.816Z,64.52
2017-12-29T20:01:49.138Z,64.75
2017-12-29T20:04:15.428Z,64.91
2017-12-29T20:06:41.755Z,65.08
2017-12-29T20:09:08.065Z,65.06
2017-12-29T20:11:35.096Z,65.20
2017-12-29T20:14:01.403Z,65.50
2017-12-29T20:16:34.630Z,65.66
2017-12-29T20:19:01.662Z,65.83
2017-12-29T20:21:27.940Z,65.51
2017-12-29T20:23:54.284Z,65.62
2017-12-29T20:26:20.613Z,65.54
2017-12-29T20:28:46.942Z,65.52
2017-12-29T20:31:13.220Z,65.81
2017-12-29T20:33:39.560Z,65.86
2017-12-29T20:36:06.596Z,66.00
2017-12-29T20:38:32.886Z,66.29
2017-12-29T20:40:59.214Z,66.45
2017-12-29T20:43:25.528Z,66.32
2017-12-29T20:45:51.795Z,66.47
2017-12-29T20:48:18.120Z,66.56
2017-12-29T20:50:44.456Z,67.12
2017-12-29T20:53:10.793Z,67.04
2017-12-29T20:55:37.098Z,67.11
2017-12-29T20:58:03.387Z,67.02
2017-12-29T21:00:30.433Z,67.33
2017-12-29T21:02:57.527Z,67.57
2017-12-29T21:05:23.809Z,67.48
2017-12-29T21:07:50.856Z,67.60
2017-12-29T21:10:18.058Z,67.59
2017-12-29T21:12:44.351Z,67.52
2017-12-29T21:15:11.560Z,67.72
2017-12-29T21:17:37.841Z,68.06
2017-12-29T21:20:04.174Z,68.13
2017-12-29T21:22:30.452Z,67.76
2017-12-29T21:24:56.766Z,67.00
2017-12-29T21:27:23.068Z,67.25
2017-12-29T21:29:49.351Z,66.65
2017-12-29T21:32:15.625Z,67.14
2017-12-29T21:34:41.942Z,67.56
2017-12-29T21:37:08.928Z,67.24
2017-12-29T21:39:35.189Z,66.78
2017-12-29T21:42:02.064Z,66.76
2017-12-29T21:44:29.101Z,66.90
2017-12-29T21:46:56.213Z,66.48
2017-12-29T21:49:22.523Z,66.44
2017-12-29T21:51:48.802Z,66.52
2017-12-29T21:54:15.091Z,66.23
2017-12-29T21:56:41.389Z,65.69
2017-12-29T21:59:07.659Z,65.84
2017-12-29T22:01:34.855Z,65.55
2017-12-29T22:04:02.382Z,65.75
2017-12-29T22:06:28.649Z,66.13
2017-12-29T22:08:56.155Z,66.18
2017-12-29T22:11:22.455Z,66.16
2017-12-29T22:13:48.718Z,65.82
2017-12-29T22:16:15.028Z,65.20
2017-12-29T22:18:41.376Z,65.16
2017-12-29T22:21:07.644Z,65.34
2017-12-29T22:23:33.956Z,65.22
2017-12-29T22:26:00.184Z,65.09
2017-12-29T22:28:26.500Z,65.10
2017-12-29T22:30:52.848Z,65.24
2017-12-29T22:33:19.132Z,64.97
2017-12-29T22:35:45.427Z,64.40
2017-12-29T22:38:11.702Z,64.03
2017-12-29T22:40:38.053Z,63.50
2017-12-29T22:43:04.313Z,63.55
2017-12-29T22:45:30.673Z,63.81
2017-12-29T22:47:57.701Z,64.04
2017-12-29T22:50:23.926Z,64.00
2017-12-29T22:52:50.153Z,64.08
2017-12-29T22:55:16.447Z,64.32
2017-12-29T22:57:42.703Z,64.32
2017-12-29T23:00:08.956Z,64.29
2017-12-29T23:02:35.985Z,63.98
2017-12-29T23:05:02.285Z,63.38
2017-12-29T23:07:28.577Z,63.52
2017-12-29T23:09:54.849Z,63.39
2017-12-29T23:12:21.124Z,62.69
2017-12-29T23:14:48.139Z,62.36
2017-12-29T23:17:14.425Z,62.65
2017-12-29T23:19:40.687Z,61.78
2017-12-29T23:22:06.915Z,61.55
2017-12-29T23:24:33.226Z,61.64
2017-12-29T23:27:00.419Z,60.98
2017-12-29T23:29:26.687Z,60.85
2017-12-29T23:31:52.940Z,60.84
2017-12-29T23:34:19.232Z,60.69
2017-12-29T23:36:46.302Z,60.71
2017-12-29T23:39:12.558Z,60.65
2017-12-29T23:41:38.943Z,60.78
2017-12-29T23:44:06.326Z,60.71
2017-12-29T23:46:32.580Z,60.54
2017-12-29T23:48:58.881Z,59.62
2017-12-29T23:51:25.154Z,59.56
2017-12-29T23:53:51.452Z,59.09
2017-12-29T23:56:17.684Z,58.83
2017-12-29T23:58:43.940Z,58.17
